sensor_id;sensor_type;location;lat;lon;timestamp;P1;durP1;ratioP1;P2;durP2;ratioP2
68457;SDS011;65384;52.016;5.428;2023-03-23T00:01:46;8.18;;;3.45;;
68457;SDS011;65384;52.016;5.428;2023-03-23T00:04:14;8.95;;;3.70;;
68457;SDS011;65384;52.016;5.428;2023-03-23T00:06:40;7.97;;;3.33;;
68457;SDS011;65384;52.016;5.428;2023-03-23T00:09:06;8.30;;;3.70;;
68457;SDS011;65384;52.016;5.428;2023-03-23T00:11:31;11.13;;;3.50;;
68457;SDS011;65384;52.016;5.428;2023-03-23T00:13:57;8.18;;;3.47;;
68457;SDS011;65384;52.016;5.428;2023-03-23T00:16:26;7.22;;;3.40;;
68457;SDS011;65384;52.016;5.428;2023-03-23T00:18:57;7.30;;;3.03;;
68457;SDS011;65384;52.016;5.428;2023-03-23T00:21:26;6.35;;;3.35;;
68457;SDS011;65384;52.016;5.428;2023-03-23T00:24:03;6.55;;;2.53;;
68457;SDS011;65384;52.016;5.428;2023-03-23T00:26:42;7.13;;;3.22;;
68457;SDS011;65384;52.016;5.428;2023-03-23T00:31:44;8.63;;;3.50;;
68457;SDS011;65384;52.016;5.428;2023-03-23T00:34:12;8.38;;;3.08;;
68457;SDS011;65384;52.016;5.428;2023-03-23T00:36:53;5.82;;;2.80;;
68457;SDS011;65384;52.016;5.428;2023-03-23T00:39:22;5.80;;;3.20;;
68457;SDS011;65384;52.016;5.428;2023-03-23T00:41:50;5.68;;;3.10;;
68457;SDS011;65384;52.016;5.428;2023-03-23T00:44:16;10.02;;;3.10;;
68457;SDS011;65384;52.016;5.428;2023-03-23T00:46:45;7.72;;;3.05;;
68457;SDS011;65384;52.016;5.428;2023-03-23T00:49:13;7.38;;;3.08;;
68457;SDS011;65384;52.016;5.428;2023-03-23T00:51:40;9.07;;;3.25;;
68457;SDS011;65384;52.016;5.428;2023-03-23T00:54:06;5.63;;;2.40;;
68457;SDS011;65384;52.016;5.428;2023-03-23T00:56:32;6.55;;;3.25;;
68457;SDS011;65384;52.016;5.428;2023-03-23T00:58:58;7.85;;;3.00;;
68457;SDS011;65384;52.016;5.428;2023-03-23T01:01:23;6.70;;;2.83;;
68457;SDS011;65384;52.016;5.428;2023-03-23T01:03:49;9.30;;;2.90;;
68457;SDS011;65384;52.016;5.428;2023-03-23T01:06:14;8.05;;;2.55;;
68457;SDS011;65384;52.016;5.428;2023-03-23T01:08:40;7.25;;;3.05;;
68457;SDS011;65384;52.016;5.428;2023-03-23T01:11:11;7.68;;;2.80;;
68457;SDS011;65384;52.016;5.428;2023-03-23T01:13:38;5.35;;;2.60;;
68457;SDS011;65384;52.016;5.428;2023-03-23T01:16:04;6.95;;;2.83;;
68457;SDS011;65384;52.016;5.428;2023-03-23T01:18:30;7.43;;;2.72;;
68457;SDS011;65384;52.016;5.428;2023-03-23T01:20:55;4.15;;;2.40;;
68457;SDS011;65384;52.016;5.428;2023-03-23T01:23:21;7.05;;;2.40;;
68457;SDS011;65384;52.016;5.428;2023-03-23T01:25:46;5.38;;;2.47;;
68457;SDS011;65384;52.016;5.428;2023-03-23T01:28:11;3.72;;;1.85;;
68457;SDS011;65384;52.016;5.428;2023-03-23T01:30:37;5.07;;;2.30;;
68457;SDS011;65384;52.016;5.428;2023-03-23T01:33:02;3.70;;;2.00;;
68457;SDS011;65384;52.016;5.428;2023-03-23T01:35:28;5.88;;;2.53;;
68457;SDS011;65384;52.016;5.428;2023-03-23T01:37:53;4.88;;;2.20;;
68457;SDS011;65384;52.016;5.428;2023-03-23T01:40:19;5.75;;;2.38;;
68457;SDS011;65384;52.016;5.428;2023-03-23T01:42:44;6.00;;;2.88;;
68457;SDS011;65384;52.016;5.428;2023-03-23T01:47:45;5.35;;;2.60;;
68457;SDS011;65384;52.016;5.428;2023-03-23T01:50:11;7.43;;;2.92;;
68457;SDS011;65384;52.016;5.428;2023-03-23T01:52:37;5.75;;;2.70;;
68457;SDS011;65384;52.016;5.428;2023-03-23T01:55:04;7.80;;;2.78;;
68457;SDS011;65384;52.016;5.428;2023-03-23T01:57:30;4.70;;;2.20;;
68457;SDS011;65384;52.016;5.428;2023-03-23T01:59:56;4.30;;;2.47;;
68457;SDS011;65384;52.016;5.428;2023-03-23T02:02:23;4.80;;;2.90;;
68457;SDS011;65384;52.016;5.428;2023-03-23T02:04:49;6.80;;;3.25;;
68457;SDS011;65384;52.016;5.428;2023-03-23T02:07:16;5.68;;;2.70;;
68457;SDS011;65384;52.016;5.428;2023-03-23T02:09:43;4.53;;;2.50;;
68457;SDS011;65384;52.016;5.428;2023-03-23T02:12:08;4.72;;;2.80;;
68457;SDS011;65384;52.016;5.428;2023-03-23T02:14:34;5.07;;;2.70;;
68457;SDS011;65384;52.016;5.428;2023-03-23T02:17:10;5.47;;;3.08;;
68457;SDS011;65384;52.016;5.428;2023-03-23T02:22:41;6.40;;;3.03;;
68457;SDS011;65384;52.016;5.428;2023-03-23T02:28:11;10.43;;;3.42;;
68457;SDS011;65384;52.016;5.428;2023-03-23T02:31:01;5.93;;;3.00;;
68457;SDS011;65384;52.016;5.428;2023-03-23T02:33:39;5.75;;;2.58;;
68457;SDS011;65384;52.016;5.428;2023-03-23T02:36:19;6.18;;;3.05;;
68457;SDS011;65384;52.016;5.428;2023-03-23T02:38:57;7.82;;;3.40;;
68457;SDS011;65384;52.016;5.428;2023-03-23T02:41:30;8.23;;;3.60;;
68457;SDS011;65384;52.016;5.428;2023-03-23T02:43:57;7.30;;;3.17;;
68457;SDS011;65384;52.016;5.428;2023-03-23T02:46:23;7.28;;;3.15;;
68457;SDS011;65384;52.016;5.428;2023-03-23T02:48:48;7.82;;;3.60;;
68457;SDS011;65384;52.016;5.428;2023-03-23T02:51:16;7.03;;;3.60;;
68457;SDS011;65384;52.016;5.428;2023-03-23T02:53:43;5.95;;;3.58;;
68457;SDS011;65384;52.016;5.428;2023-03-23T02:56:10;8.23;;;3.70;;
68457;SDS011;65384;52.016;5.428;2023-03-23T02:58:36;10.35;;;4.05;;
68457;SDS011;65384;52.016;5.428;2023-03-23T03:01:15;7.28;;;3.78;;
68457;SDS011;65384;52.016;5.428;2023-03-23T03:04:06;8.07;;;3.45;;
68457;SDS011;65384;52.016;5.428;2023-03-23T03:06:36;8.43;;;3.72;;
68457;SDS011;65384;52.016;5.428;2023-03-23T03:11:52;6.93;;;3.40;;
68457;SDS011;65384;52.016;5.428;2023-03-23T03:14:22;6.25;;;3.53;;
68457;SDS011;65384;52.016;5.428;2023-03-23T03:17:02;6.10;;;3.08;;
68457;SDS011;65384;52.016;5.428;2023-03-23T03:19:35;8.15;;;3.20;;
68457;SDS011;65384;52.016;5.428;2023-03-23T03:22:05;5.38;;;2.20;;
68457;SDS011;65384;52.016;5.428;2023-03-23T03:24:32;5.60;;;2.92;;
68457;SDS011;65384;52.016;5.428;2023-03-23T03:26:58;4.82;;;2.70;;
68457;SDS011;65384;52.016;5.428;2023-03-23T03:29:26;6.55;;;2.65;;
68457;SDS011;65384;52.016;5.428;2023-03-23T03:31:55;7.25;;;2.90;;
68457;SDS011;65384;52.016;5.428;2023-03-23T03:34:22;5.93;;;2.60;;
68457;SDS011;65384;52.016;5.428;2023-03-23T03:36:49;6.97;;;3.08;;
68457;SDS011;65384;52.016;5.428;2023-03-23T03:39:17;6.30;;;2.95;;
68457;SDS011;65384;52.016;5.428;2023-03-23T03:41:44;6.22;;;3.10;;
68457;SDS011;65384;52.016;5.428;2023-03-23T03:44:10;5.18;;;3.08;;
68457;SDS011;65384;52.016;5.428;2023-03-23T03:46:36;6.32;;;2.88;;
68457;SDS011;65384;52.016;5.428;2023-03-23T03:49:03;6.65;;;3.05;;
68457;SDS011;65384;52.016;5.428;2023-03-23T03:51:31;5.57;;;3.03;;
68457;SDS011;65384;52.016;5.428;2023-03-23T03:53:57;7.70;;;3.38;;
68457;SDS011;65384;52.016;5.428;2023-03-23T03:56:23;6.43;;;2.80;;
68457;SDS011;65384;52.016;5.428;2023-03-23T03:58:49;6.53;;;2.72;;
68457;SDS011;65384;52.016;5.428;2023-03-23T04:01:16;7.60;;;3.22;;
68457;SDS011;65384;52.016;5.428;2023-03-23T04:03:42;6.68;;;3.00;;
68457;SDS011;65384;52.016;5.428;2023-03-23T04:06:08;5.10;;;2.97;;
68457;SDS011;65384;52.016;5.428;2023-03-23T04:08:35;8.48;;;2.88;;
68457;SDS011;65384;52.016;5.428;2023-03-23T04:11:02;5.60;;;2.78;;
68457;SDS011;65384;52.016;5.428;2023-03-23T04:13:29;8.93;;;3.00;;
68457;SDS011;65384;52.016;5.428;2023-03-23T04:15:54;5.20;;;2.80;;
68457;SDS011;65384;52.016;5.428;2023-03-23T04:18:19;4.80;;;2.47;;
68457;SDS011;65384;52.016;5.428;2023-03-23T04:20:46;7.93;;;2.80;;
68457;SDS011;65384;52.016;5.428;2023-03-23T04:23:14;7.53;;;2.78;;
68457;SDS011;65384;52.016;5.428;2023-03-23T04:25:45;6.90;;;2.53;;
68457;SDS011;65384;52.016;5.428;2023-03-23T04:28:11;4.00;;;2.00;;
68457;SDS011;65384;52.016;5.428;2023-03-23T04:30:37;6.55;;;2.50;;
68457;SDS011;65384;52.016;5.428;2023-03-23T04:33:02;3.55;;;2.00;;
68457;SDS011;65384;52.016;5.428;2023-03-23T04:35:28;8.68;;;2.40;;
68457;SDS011;65384;52.016;5.428;2023-03-23T04:37:54;5.15;;;2.10;;
68457;SDS011;65384;52.016;5.428;2023-03-23T04:40:20;7.15;;;2.40;;
68457;SDS011;65384;52.016;5.428;2023-03-23T04:42:46;5.97;;;1.60;;
68457;SDS011;65384;52.016;5.428;2023-03-23T04:45:13;3.97;;;1.95;;
68457;SDS011;65384;52.016;5.428;2023-03-23T04:47:40;7.22;;;2.35;;
68457;SDS011;65384;52.016;5.428;2023-03-23T04:50:10;5.47;;;1.65;;
68457;SDS011;65384;52.016;5.428;2023-03-23T04:52:39;4.15;;;1.65;;
68457;SDS011;65384;52.016;5.428;2023-03-23T04:55:09;7.22;;;1.85;;
68457;SDS011;65384;52.016;5.428;2023-03-23T04:57:35;5.20;;;1.92;;
68457;SDS011;65384;52.016;5.428;2023-03-23T05:00:02;6.47;;;1.70;;
68457;SDS011;65384;52.016;5.428;2023-03-23T05:02:34;5.68;;;1.42;;
68457;SDS011;65384;52.016;5.428;2023-03-23T05:05:00;8.05;;;1.77;;
68457;SDS011;65384;52.016;5.428;2023-03-23T05:07:26;8.15;;;2.20;;
68457;SDS011;65384;52.016;5.428;2023-03-23T05:09:51;5.07;;;1.50;;
68457;SDS011;65384;52.016;5.428;2023-03-23T05:12:17;5.00;;;1.80;;
68457;SDS011;65384;52.016;5.428;2023-03-23T05:14:42;6.75;;;1.70;;
68457;SDS011;65384;52.016;5.428;2023-03-23T05:17:08;6.82;;;1.88;;
68457;SDS011;65384;52.016;5.428;2023-03-23T05:19:34;7.85;;;2.08;;
68457;SDS011;65384;52.016;5.428;2023-03-23T05:22:00;5.18;;;1.70;;
68457;SDS011;65384;52.016;5.428;2023-03-23T05:24:31;6.95;;;1.42;;
68457;SDS011;65384;52.016;5.428;2023-03-23T05:26:58;9.63;;;2.20;;
68457;SDS011;65384;52.016;5.428;2023-03-23T05:29:23;6.53;;;1.67;;
68457;SDS011;65384;52.016;5.428;2023-03-23T05:31:49;4.85;;;1.65;;
68457;SDS011;65384;52.016;5.428;2023-03-23T05:34:14;7.32;;;1.50;;
68457;SDS011;65384;52.016;5.428;2023-03-23T05:36:41;13.48;;;1.95;;
68457;SDS011;65384;52.016;5.428;2023-03-23T05:39:08;6.38;;;1.60;;
68457;SDS011;65384;52.016;5.428;2023-03-23T05:41:35;8.80;;;1.90;;
68457;SDS011;65384;52.016;5.428;2023-03-23T05:44:00;6.93;;;1.60;;
68457;SDS011;65384;52.016;5.428;2023-03-23T05:46:26;6.20;;;1.50;;
68457;SDS011;65384;52.016;5.428;2023-03-23T05:48:51;5.70;;;1.63;;
68457;SDS011;65384;52.016;5.428;2023-03-23T05:51:17;10.25;;;1.73;;
68457;SDS011;65384;52.016;5.428;2023-03-23T05:53:43;10.30;;;2.00;;
68457;SDS011;65384;52.016;5.428;2023-03-23T05:56:09;7.85;;;1.48;;
68457;SDS011;65384;52.016;5.428;2023-03-23T05:58:34;5.80;;;1.40;;
68457;SDS011;65384;52.016;5.428;2023-03-23T06:00:59;5.13;;;1.50;;
68457;SDS011;65384;52.016;5.428;2023-03-23T06:03:25;8.18;;;1.63;;
68457;SDS011;65384;52.016;5.428;2023-03-23T06:05:50;7.43;;;1.83;;
68457;SDS011;65384;52.016;5.428;2023-03-23T06:08:16;8.00;;;1.70;;
68457;SDS011;65384;52.016;5.428;2023-03-23T06:10:41;5.88;;;1.45;;
68457;SDS011;65384;52.016;5.428;2023-03-23T06:13:07;6.35;;;1.55;;
68457;SDS011;65384;52.016;5.428;2023-03-23T06:15:32;11.73;;;1.83;;
68457;SDS011;65384;52.016;5.428;2023-03-23T06:18:01;6.78;;;1.50;;
68457;SDS011;65384;52.016;5.428;2023-03-23T06:20:27;9.48;;;1.85;;
68457;SDS011;65384;52.016;5.428;2023-03-23T06:22:54;8.70;;;1.90;;
68457;SDS011;65384;52.016;5.428;2023-03-23T06:25:19;5.60;;;1.60;;
68457;SDS011;65384;52.016;5.428;2023-03-23T06:27:45;5.63;;;1.80;;
68457;SDS011;65384;52.016;5.428;2023-03-23T06:30:11;5.13;;;1.60;;
68457;SDS011;65384;52.016;5.428;2023-03-23T06:32:39;6.38;;;1.90;;
68457;SDS011;65384;52.016;5.428;2023-03-23T06:35:05;7.97;;;1.80;;
68457;SDS011;65384;52.016;5.428;2023-03-23T06:37:34;7.03;;;1.75;;
68457;SDS011;65384;52.016;5.428;2023-03-23T06:40:00;7.97;;;1.88;;
68457;SDS011;65384;52.016;5.428;2023-03-23T06:42:25;10.88;;;2.53;;
68457;SDS011;65384;52.016;5.428;2023-03-23T06:44:51;9.57;;;1.92;;
68457;SDS011;65384;52.016;5.428;2023-03-23T06:47:17;6.07;;;1.98;;
68457;SDS011;65384;52.016;5.428;2023-03-23T06:49:42;10.10;;;2.03;;
68457;SDS011;65384;52.016;5.428;2023-03-23T06:52:08;5.38;;;1.88;;
68457;SDS011;65384;52.016;5.428;2023-03-23T06:54:33;9.02;;;2.20;;
68457;SDS011;65384;52.016;5.428;2023-03-23T06:56:58;10.15;;;2.05;;
68457;SDS011;65384;52.016;5.428;2023-03-23T06:59:24;9.70;;;2.30;;
68457;SDS011;65384;52.016;5.428;2023-03-23T07:01:49;9.23;;;2.08;;
68457;SDS011;65384;52.016;5.428;2023-03-23T07:04:15;8.25;;;2.08;;
68457;SDS011;65384;52.016;5.428;2023-03-23T07:06:41;5.55;;;1.80;;
68457;SDS011;65384;52.016;5.428;2023-03-23T07:09:06;5.00;;;1.80;;
68457;SDS011;65384;52.016;5.428;2023-03-23T07:11:32;8.15;;;1.83;;
68457;SDS011;65384;52.016;5.428;2023-03-23T07:13:57;3.80;;;1.50;;
68457;SDS011;65384;52.016;5.428;2023-03-23T07:16:22;9.90;;;1.80;;
68457;SDS011;65384;52.016;5.428;2023-03-23T07:18:48;10.45;;;1.90;;
68457;SDS011;65384;52.016;5.428;2023-03-23T07:21:13;10.40;;;1.75;;
68457;SDS011;65384;52.016;5.428;2023-03-23T07:23:38;8.60;;;1.83;;
68457;SDS011;65384;52.016;5.428;2023-03-23T07:26:04;6.63;;;1.63;;
68457;SDS011;65384;52.016;5.428;2023-03-23T07:28:29;6.93;;;1.73;;
68457;SDS011;65384;52.016;5.428;2023-03-23T07:30:55;9.70;;;1.65;;
68457;SDS011;65384;52.016;5.428;2023-03-23T07:33:20;7.43;;;1.80;;
68457;SDS011;65384;52.016;5.428;2023-03-23T07:35:46;7.93;;;1.30;;
68457;SDS011;65384;52.016;5.428;2023-03-23T07:38:12;11.45;;;1.85;;
68457;SDS011;65384;52.016;5.428;2023-03-23T07:40:38;9.73;;;1.83;;
68457;SDS011;65384;52.016;5.428;2023-03-23T07:43:04;5.72;;;1.90;;
68457;SDS011;65384;52.016;5.428;2023-03-23T07:45:30;7.10;;;2.00;;
68457;SDS011;65384;52.016;5.428;2023-03-23T07:47:56;5.57;;;1.67;;
68457;SDS011;65384;52.016;5.428;2023-03-23T07:50:22;6.65;;;1.80;;
68457;SDS011;65384;52.016;5.428;2023-03-23T07:52:49;7.38;;;1.83;;
68457;SDS011;65384;52.016;5.428;2023-03-23T07:55:22;5.15;;;1.90;;
68457;SDS011;65384;52.016;5.428;2023-03-23T07:57:49;5.38;;;1.70;;
68457;SDS011;65384;52.016;5.428;2023-03-23T08:00:16;7.45;;;2.00;;
68457;SDS011;65384;52.016;5.428;2023-03-23T08:02:48;10.38;;;1.95;;
68457;SDS011;65384;52.016;5.428;2023-03-23T08:05:15;5.20;;;1.77;;
68457;SDS011;65384;52.016;5.428;2023-03-23T08:07:40;8.07;;;2.15;;
68457;SDS011;65384;52.016;5.428;2023-03-23T08:10:07;7.97;;;2.22;;
68457;SDS011;65384;52.016;5.428;2023-03-23T08:12:40;7.90;;;2.10;;
68457;SDS011;65384;52.016;5.428;2023-03-23T08:15:07;3.90;;;1.50;;
68457;SDS011;65384;52.016;5.428;2023-03-23T08:17:33;7.38;;;2.00;;
68457;SDS011;65384;52.016;5.428;2023-03-23T08:19:59;5.15;;;1.83;;
68457;SDS011;65384;52.016;5.428;2023-03-23T08:22:25;10.98;;;2.30;;
68457;SDS011;65384;52.016;5.428;2023-03-23T08:24:51;9.13;;;2.20;;
68457;SDS011;65384;52.016;5.428;2023-03-23T08:27:16;4.00;;;1.50;;
68457;SDS011;65384;52.016;5.428;2023-03-23T08:29:44;4.47;;;1.70;;
68457;SDS011;65384;52.016;5.428;2023-03-23T08:32:10;7.68;;;1.45;;
68457;SDS011;65384;52.016;5.428;2023-03-23T08:34:36;8.07;;;2.15;;
68457;SDS011;65384;52.016;5.428;2023-03-23T08:37:01;7.82;;;2.10;;
68457;SDS011;65384;52.016;5.428;2023-03-23T08:39:27;6.47;;;1.90;;
68457;SDS011;65384;52.016;5.428;2023-03-23T08:41:55;8.50;;;2.30;;
68457;SDS011;65384;52.016;5.428;2023-03-23T08:44:20;7.72;;;1.98;;
68457;SDS011;65384;52.016;5.428;2023-03-23T08:46:46;6.20;;;2.05;;
68457;SDS011;65384;52.016;5.428;2023-03-23T08:49:11;6.95;;;1.98;;
68457;SDS011;65384;52.016;5.428;2023-03-23T08:51:36;7.68;;;2.20;;
68457;SDS011;65384;52.016;5.428;2023-03-23T08:54:02;8.85;;;2.03;;
68457;SDS011;65384;52.016;5.428;2023-03-23T08:56:27;7.72;;;2.00;;
68457;SDS011;65384;52.016;5.428;2023-03-23T08:58:53;6.43;;;1.80;;
68457;SDS011;65384;52.016;5.428;2023-03-23T09:01:18;5.70;;;1.60;;
68457;SDS011;65384;52.016;5.428;2023-03-23T09:03:44;5.47;;;1.48;;
68457;SDS011;65384;52.016;5.428;2023-03-23T09:06:10;4.05;;;1.42;;
68457;SDS011;65384;52.016;5.428;2023-03-23T09:08:37;4.72;;;1.48;;
68457;SDS011;65384;52.016;5.428;2023-03-23T09:11:05;6.63;;;1.75;;
68457;SDS011;65384;52.016;5.428;2023-03-23T09:13:35;6.78;;;1.52;;
68457;SDS011;65384;52.016;5.428;2023-03-23T09:16:01;5.25;;;1.70;;
68457;SDS011;65384;52.016;5.428;2023-03-23T09:18:28;4.43;;;1.70;;
68457;SDS011;65384;52.016;5.428;2023-03-23T09:20:53;9.65;;;2.00;;
68457;SDS011;65384;52.016;5.428;2023-03-23T09:23:19;7.00;;;1.67;;
68457;SDS011;65384;52.016;5.428;2023-03-23T09:25:45;6.28;;;1.70;;
68457;SDS011;65384;52.016;5.428;2023-03-23T09:28:11;6.15;;;1.38;;
68457;SDS011;65384;52.016;5.428;2023-03-23T09:30:37;6.07;;;1.60;;
68457;SDS011;65384;52.016;5.428;2023-03-23T09:33:04;9.50;;;2.13;;
68457;SDS011;65384;52.016;5.428;2023-03-23T09:35:31;7.55;;;1.48;;
68457;SDS011;65384;52.016;5.428;2023-03-23T09:37:59;5.90;;;1.50;;
68457;SDS011;65384;52.016;5.428;2023-03-23T09:40:30;5.70;;;1.50;;
68457;SDS011;65384;52.016;5.428;2023-03-23T09:43:24;8.23;;;1.83;;
68457;SDS011;65384;52.016;5.428;2023-03-23T09:49:36;5.65;;;1.58;;
68457;SDS011;65384;52.016;5.428;2023-03-23T09:52:14;8.73;;;1.70;;
68457;SDS011;65384;52.016;5.428;2023-03-23T09:54:41;9.07;;;1.70;;
68457;SDS011;65384;52.016;5.428;2023-03-23T09:57:19;8.13;;;2.00;;
68457;SDS011;65384;52.016;5.428;2023-03-23T10:00:10;6.97;;;1.42;;
68457;SDS011;65384;52.016;5.428;2023-03-23T10:02:43;4.43;;;1.60;;
68457;SDS011;65384;52.016;5.428;2023-03-23T10:05:24;7.65;;;1.63;;
68457;SDS011;65384;52.016;5.428;2023-03-23T10:08:11;6.20;;;1.73;;
68457;SDS011;65384;52.016;5.428;2023-03-23T10:10:46;7.90;;;1.50;;
68457;SDS011;65384;52.016;5.428;2023-03-23T10:16:05;8.13;;;1.85;;
68457;SDS011;65384;52.016;5.428;2023-03-23T10:21:03;6.80;;;1.42;;
68457;SDS011;65384;52.016;5.428;2023-03-23T10:23:35;11.38;;;2.30;;
68457;SDS011;65384;52.016;5.428;2023-03-23T10:26:18;6.75;;;1.60;;
68457;SDS011;65384;52.016;5.428;2023-03-23T10:28:47;9.00;;;1.65;;
68457;SDS011;65384;52.016;5.428;2023-03-23T10:31:22;9.85;;;1.88;;
68457;SDS011;65384;52.016;5.428;2023-03-23T10:33:50;13.05;;;2.17;;
68457;SDS011;65384;52.016;5.428;2023-03-23T10:38:59;10.80;;;1.75;;
68457;SDS011;65384;52.016;5.428;2023-03-23T10:41:28;8.20;;;1.58;;
68457;SDS011;65384;52.016;5.428;2023-03-23T10:43:54;8.35;;;1.63;;
68457;SDS011;65384;52.016;5.428;2023-03-23T10:46:22;12.00;;;2.00;;
68457;SDS011;65384;52.016;5.428;2023-03-23T10:48:50;11.05;;;1.77;;
68457;SDS011;65384;52.016;5.428;2023-03-23T10:51:18;10.27;;;1.65;;
68457;SDS011;65384;52.016;5.428;2023-03-23T10:53:49;10.63;;;1.85;;
68457;SDS011;65384;52.016;5.428;2023-03-23T10:56:20;9.68;;;1.45;;
68457;SDS011;65384;52.016;5.428;2023-03-23T10:58:51;9.18;;;1.55;;
68457;SDS011;65384;52.016;5.428;2023-03-23T11:01:18;8.10;;;1.88;;
68457;SDS011;65384;52.016;5.428;2023-03-23T11:03:45;10.32;;;2.03;;
68457;SDS011;65384;52.016;5.428;2023-03-23T11:06:27;9.10;;;1.80;;
68457;SDS011;65384;52.016;5.428;2023-03-23T11:09:01;6.82;;;1.70;;
68457;SDS011;65384;52.016;5.428;2023-03-23T11:11:29;10.70;;;1.65;;
68457;SDS011;65384;52.016;5.428;2023-03-23T11:14:01;10.52;;;1.70;;
68457;SDS011;65384;52.016;5.428;2023-03-23T11:16:43;10.40;;;2.42;;
68457;SDS011;65384;52.016;5.428;2023-03-23T11:19:14;6.20;;;1.63;;
68457;SDS011;65384;52.016;5.428;2023-03-23T11:21:45;10.50;;;1.83;;
68457;SDS011;65384;52.016;5.428;2023-03-23T11:24:12;7.68;;;1.58;;
68457;SDS011;65384;52.016;5.428;2023-03-23T11:26:38;7.55;;;1.48;;
68457;SDS011;65384;52.016;5.428;2023-03-23T11:29:05;7.72;;;1.50;;
68457;SDS011;65384;52.016;5.428;2023-03-23T11:31:39;9.17;;;1.57;;
68457;SDS011;65384;52.016;5.428;2023-03-23T11:36:37;6.95;;;1.50;;
68457;SDS011;65384;52.016;5.428;2023-03-23T11:39:22;7.38;;;1.30;;
68457;SDS011;65384;52.016;5.428;2023-03-23T11:41:50;7.90;;;1.90;;
68457;SDS011;65384;52.016;5.428;2023-03-23T11:44:16;5.32;;;1.15;;
68457;SDS011;65384;52.016;5.428;2023-03-23T11:46:45;5.45;;;1.20;;
68457;SDS011;65384;52.016;5.428;2023-03-23T11:49:18;7.68;;;1.65;;
68457;SDS011;65384;52.016;5.428;2023-03-23T11:51:51;7.82;;;1.30;;
68457;SDS011;65384;52.016;5.428;2023-03-23T11:54:30;6.63;;;1.40;;
68457;SDS011;65384;52.016;5.428;2023-03-23T11:56:58;10.27;;;1.50;;
68457;SDS011;65384;52.016;5.428;2023-03-23T11:59:29;11.02;;;1.70;;
68457;SDS011;65384;52.016;5.428;2023-03-23T12:12:38;3.83;;;1.30;;
68457;SDS011;65384;52.016;5.428;2023-03-23T12:23:21;8.07;;;1.25;;
68457;SDS011;65384;52.016;5.428;2023-03-23T12:25:56;7.70;;;1.40;;
68457;SDS011;65384;52.016;5.428;2023-03-23T12:47:46;2.72;;;1.00;;
68457;SDS011;65384;52.016;5.428;2023-03-23T12:50:15;4.80;;;1.40;;
68457;SDS011;65384;52.016;5.428;2023-03-23T12:52:50;5.30;;;1.70;;
68457;SDS011;65384;52.016;5.428;2023-03-23T12:58:11;7.13;;;1.70;;
68457;SDS011;65384;52.016;5.428;2023-03-23T13:05:56;4.50;;;1.17;;
68457;SDS011;65384;52.016;5.428;2023-03-23T13:19:19;5.70;;;1.27;;
68457;SDS011;65384;52.016;5.428;2023-03-23T13:24:28;5.45;;;1.40;;
68457;SDS011;65384;52.016;5.428;2023-03-23T13:26:55;8.95;;;1.50;;
68457;SDS011;65384;52.016;5.428;2023-03-23T13:29:26;7.35;;;1.33;;
68457;SDS011;65384;52.016;5.428;2023-03-23T13:31:52;4.40;;;1.23;;
68457;SDS011;65384;52.016;5.428;2023-03-23T13:34:30;5.03;;;1.20;;
68457;SDS011;65384;52.016;5.428;2023-03-23T13:37:00;4.22;;;1.50;;
68457;SDS011;65384;52.016;5.428;2023-03-23T13:39:34;5.22;;;1.40;;
68457;SDS011;65384;52.016;5.428;2023-03-23T13:49:55;5.00;;;1.55;;
68457;SDS011;65384;52.016;5.428;2023-03-23T13:54:48;8.10;;;2.03;;
68457;SDS011;65384;52.016;5.428;2023-03-23T13:57:34;7.75;;;1.92;;
68457;SDS011;65384;52.016;5.428;2023-03-23T14:02:52;5.57;;;2.05;;
68457;SDS011;65384;52.016;5.428;2023-03-23T14:13:17;4.53;;;1.80;;
68457;SDS011;65384;52.016;5.428;2023-03-23T14:15:58;4.28;;;1.88;;
68457;SDS011;65384;52.016;5.428;2023-03-23T14:18:27;9.27;;;2.20;;
68457;SDS011;65384;52.016;5.428;2023-03-23T14:21:00;5.95;;;1.77;;
68457;SDS011;65384;52.016;5.428;2023-03-23T14:23:25;8.15;;;1.73;;
68457;SDS011;65384;52.016;5.428;2023-03-23T14:25:55;7.30;;;2.00;;
68457;SDS011;65384;52.016;5.428;2023-03-23T14:28:21;8.05;;;1.20;;
68457;SDS011;65384;52.016;5.428;2023-03-23T14:30:48;7.35;;;1.90;;
68457;SDS011;65384;52.016;5.428;2023-03-23T14:33:17;8.88;;;1.50;;
68457;SDS011;65384;52.016;5.428;2023-03-23T14:35:44;7.63;;;1.55;;
68457;SDS011;65384;52.016;5.428;2023-03-23T14:38:14;8.90;;;1.48;;
68457;SDS011;65384;52.016;5.428;2023-03-23T14:40:49;4.05;;;1.23;;
68457;SDS011;65384;52.016;5.428;2023-03-23T14:43:15;5.65;;;1.40;;
68457;SDS011;65384;52.016;5.428;2023-03-23T14:45:42;6.65;;;1.55;;
68457;SDS011;65384;52.016;5.428;2023-03-23T14:48:08;6.93;;;1.15;;
68457;SDS011;65384;52.016;5.428;2023-03-23T14:50:39;6.43;;;1.60;;
68457;SDS011;65384;52.016;5.428;2023-03-23T14:53:39;8.52;;;1.40;;
68457;SDS011;65384;52.016;5.428;2023-03-23T14:55:59;7.53;;;1.40;;
68457;SDS011;65384;52.016;5.428;2023-03-23T14:58:27;7.88;;;1.35;;
68457;SDS011;65384;52.016;5.428;2023-03-23T15:00:58;6.47;;;1.40;;
68457;SDS011;65384;52.016;5.428;2023-03-23T15:05:54;10.18;;;1.70;;
68457;SDS011;65384;52.016;5.428;2023-03-23T15:08:28;7.97;;;1.40;;
68457;SDS011;65384;52.016;5.428;2023-03-23T15:13:37;9.20;;;1.48;;
68457;SDS011;65384;52.016;5.428;2023-03-23T15:16:06;6.75;;;1.60;;
68457;SDS011;65384;52.016;5.428;2023-03-23T15:18:54;4.55;;;1.30;;
68457;SDS011;65384;52.016;5.428;2023-03-23T15:21:30;5.18;;;1.40;;
68457;SDS011;65384;52.016;5.428;2023-03-23T15:23:57;6.60;;;1.70;;
68457;SDS011;65384;52.016;5.428;2023-03-23T15:29:29;5.18;;;1.55;;
